Strona główna
METAR-TAF:

METAR-TAF

Lotnisko :

Port lotniczy Luanda

Luanda, Angola

Szerokość geograficzna: 08-51S, Długość geograficzna: 013-14E, wysokość: 74 m

Aktualna obserwacja pogody

Raport powstał 1 godzina i 24 minut temu, godzina 17:00 UTC
Wiatr 10 kt od zachodnio-południowy zachód
Temperatura 23°C
Wilgotność 83%
Ciśnienie 1009 hPa
Widzialność: 8000 m

METAR: FNLU 251700Z 24010KT 8000 NSC 23/20 Q1009 NOSIG

czas: 19:24 (18:24 UTC)

Prognoza

Raport powstał 1 godzina i 24 minut temu, godzina 17:00 UTC
Prognoza ważna od 25 godzina 18 UTC do 26 godzina 24 UTC
Wiatr 12 kt od zachodnio-południowy zachód
Widzialność 10 km lub więcej
Brak chmur poniżej 1500 m i brak chmur cumulonimbus
Przejściowo
od 26 godzina 04 UTC do 26 godzina 08 UTC
Wiatr 3 kt z kierunków zmiennych
Widzialność: 4000 m
Przerywane chmury na wysokości 2000 ft
zamglenie,

TAF: FNLU 251700Z 2518/2624 25012KT CAVOK TEMPO 2604/2608 VRB03KT 4000 BR BKN020

Obserwacja i prognoza pogody dla ponad 4000 lotnisk (raport METAR i TAF).

Dostępne stacje oznaczono żółtymi i czerwonymi punktami na mapie.

Najedź kursorem aby zobaczyć nazwę stacji.

Kliknij aby zobaczyć obserwacje i prognozy pogody.

Aby zmienić mapę: kliknij na zielony przycisk z czarnym krzyżykiem, aby powiększyć; na zielony przycisk z myślnikiem, aby pomniejszyć; na zielone strzałki, aby przejść do map sąsiednich.


METAR-TAF: